Deseronto, Canada
Current Conditions -  °F | °C
As of 8:00 PM on Sunday 21 Dec 2014 (Local Time) from CYGK Reporting Station
Few Clouds Few Clouds  
Wind Chill: 14°   Ceiling: Unl
Heat Index: 21°   Visibility: 15mi
Dew Point: 18°   Wind: 6mph
Humidity: 86%   Direction: 50°NE
Pressure: 30.35"   Gusts: NA
Location:  44.2°N, 77.03°W
Report Text: CYGK 220100Z 05005KT 15SM FEW075 M06/M08 A3035 RMK AC1 SLP284
Loading
Personal Weather Stations






























Interactive Weather Map New forecast layout! Learn more

10-Day Weather Forecast

Advertisements
Track Severe Weather on mobile